createdAt,value
2023-05-19T00:00:48.193Z,100.00
2023-05-19T00:03:17.780Z,100.00
2023-05-19T00:05:46.181Z,100.00
2023-05-19T00:08:16.791Z,100.00
2023-05-19T00:10:43.898Z,100.00
2023-05-19T00:13:10.676Z,100.00
2023-05-19T00:15:37.628Z,100.00
2023-05-19T00:18:04.257Z,100.00
2023-05-19T00:20:30.854Z,100.00
2023-05-19T00:22:57.417Z,100.00
2023-05-19T00:25:24.129Z,100.00
2023-05-19T00:27:50.628Z,100.00
2023-05-19T00:30:17.201Z,100.00
2023-05-19T00:32:43.927Z,100.00
2023-05-19T00:35:11.486Z,100.00
2023-05-19T00:37:37.951Z,100.00
2023-05-19T00:40:06.242Z,100.00
2023-05-19T00:42:32.827Z,100.00
2023-05-19T00:44:59.917Z,100.00
2023-05-19T00:47:26.460Z,100.00
2023-05-19T00:49:53.024Z,100.00
2023-05-19T00:52:19.678Z,100.00
2023-05-19T00:54:46.489Z,100.00
2023-05-19T00:57:14.749Z,100.00
2023-05-19T00:59:41.310Z,100.00
2023-05-19T01:02:08.131Z,100.00
2023-05-19T01:04:37.000Z,100.00
2023-05-19T01:07:03.819Z,100.00
2023-05-19T01:09:32.288Z,100.00
2023-05-19T01:11:59.815Z,100.00
2023-05-19T01:14:27.043Z,100.00
2023-05-19T01:17:20.736Z,100.00
2023-05-19T01:20:06.605Z,100.00
2023-05-19T01:22:48.206Z,100.00
2023-05-19T01:25:48.710Z,100.00
2023-05-19T01:28:30.212Z,100.00
2023-05-19T01:30:59.699Z,100.00
2023-05-19T01:33:28.633Z,100.00
2023-05-19T01:35:55.917Z,100.00
2023-05-19T01:38:24.616Z,100.00
2023-05-19T01:40:52.401Z,100.00
2023-05-19T01:43:22.139Z,100.00
2023-05-19T01:45:49.157Z,100.00
2023-05-19T01:48:16.294Z,100.00
2023-05-19T01:50:43.409Z,100.00
2023-05-19T01:53:10.631Z,100.00
2023-05-19T01:55:51.343Z,100.00
2023-05-19T01:58:45.940Z,100.00
2023-05-19T02:01:42.785Z,100.00
2023-05-19T02:04:15.201Z,100.00
2023-05-19T02:06:54.493Z,100.00
2023-05-19T02:09:32.950Z,100.00
2023-05-19T02:12:14.276Z,100.00
2023-05-19T02:15:00.225Z,100.00
2023-05-19T02:17:33.156Z,100.00
2023-05-19T02:20:00.138Z,100.00
2023-05-19T02:22:26.658Z,100.00
2023-05-19T02:24:53.169Z,100.00
2023-05-19T02:27:19.711Z,100.00
2023-05-19T02:29:46.156Z,100.00
2023-05-19T02:32:13.244Z,100.00
2023-05-19T02:34:40.197Z,100.00
2023-05-19T02:37:07.834Z,100.00
2023-05-19T02:39:35.427Z,100.00
2023-05-19T02:42:01.949Z,100.00
2023-05-19T02:44:28.450Z,100.00
2023-05-19T02:46:55.081Z,100.00
2023-05-19T02:49:21.673Z,100.00
2023-05-19T02:51:48.188Z,100.00
2023-05-19T02:54:14.808Z,100.00
2023-05-19T02:56:41.395Z,100.00
2023-05-19T02:59:07.891Z,100.00
2023-05-19T03:01:34.537Z,100.00
2023-05-19T03:04:01.291Z,100.00
2023-05-19T03:06:28.265Z,100.00
2023-05-19T03:08:54.858Z,100.00
2023-05-19T03:11:23.211Z,100.00
2023-05-19T03:13:49.717Z,100.00
2023-05-19T03:16:16.215Z,100.00
2023-05-19T03:18:43.123Z,100.00
2023-05-19T03:21:09.658Z,100.00
2023-05-19T03:23:36.353Z,100.00
2023-05-19T03:26:04.232Z,100.00
2023-05-19T03:28:30.959Z,100.00
2023-05-19T03:30:57.612Z,100.00
2023-05-19T03:33:24.290Z,100.00
2023-05-19T03:35:50.937Z,100.00
2023-05-19T03:38:17.478Z,100.00
2023-05-19T03:40:45.050Z,100.00
2023-05-19T03:43:11.571Z,100.00
2023-05-19T03:45:38.087Z,100.00
2023-05-19T03:48:05.057Z,100.00
2023-05-19T03:50:31.979Z,100.00
2023-05-19T03:52:58.880Z,100.00
2023-05-19T03:55:25.807Z,100.00
2023-05-19T03:57:55.204Z,100.00
2023-05-19T04:00:21.841Z,100.00
2023-05-19T04:02:48.460Z,100.00
2023-05-19T04:05:15.157Z,100.00
2023-05-19T04:07:41.736Z,100.00
2023-05-19T04:10:08.568Z,100.00
2023-05-19T04:12:35.011Z,100.00
2023-05-19T04:15:01.690Z,100.00
2023-05-19T04:17:28.419Z,100.00
2023-05-19T04:19:55.609Z,100.00
2023-05-19T04:22:22.621Z,100.00
2023-05-19T04:24:50.536Z,100.00
2023-05-19T04:27:18.312Z,100.00
2023-05-19T04:29:46.166Z,100.00
2023-05-19T04:32:17.530Z,100.00
2023-05-19T04:34:46.144Z,100.00
2023-05-19T04:37:14.152Z,100.00
2023-05-19T04:39:43.437Z,100.00
2023-05-19T04:42:11.393Z,100.00
2023-05-19T04:44:40.258Z,100.00
2023-05-19T04:47:08.924Z,100.00
2023-05-19T04:49:39.045Z,100.00
2023-05-19T04:52:12.548Z,100.00
2023-05-19T04:54:40.104Z,100.00
2023-05-19T04:57:06.798Z,100.00
2023-05-19T04:59:33.586Z,100.00
2023-05-19T05:02:00.430Z,100.00
2023-05-19T05:04:27.046Z,100.00
2023-05-19T05:06:53.495Z,100.00
2023-05-19T05:09:20.090Z,100.00
2023-05-19T05:11:47.225Z,100.00
2023-05-19T05:14:13.971Z,100.00
2023-05-19T05:16:40.911Z,100.00
2023-05-19T05:19:07.680Z,100.00
2023-05-19T05:21:34.754Z,100.00
2023-05-19T05:24:01.503Z,100.00
2023-05-19T05:26:31.557Z,100.00
2023-05-19T05:28:58.068Z,100.00
2023-05-19T05:31:24.513Z,100.00
2023-05-19T05:33:51.108Z,100.00
2023-05-19T05:36:17.737Z,100.00
2023-05-19T05:38:44.629Z,100.00
2023-05-19T05:41:11.322Z,100.00
2023-05-19T05:43:37.842Z,100.00
2023-05-19T05:46:04.382Z,100.00
2023-05-19T05:48:31.109Z,100.00
2023-05-19T05:50:59.220Z,100.00
2023-05-19T05:53:27.924Z,100.00
2023-05-19T05:55:54.923Z,100.00
2023-05-19T05:58:22.235Z,100.00
2023-05-19T06:00:49.373Z,100.00
2023-05-19T06:03:16.951Z,100.00
2023-05-19T06:05:43.728Z,100.00
2023-05-19T06:08:10.334Z,100.00
2023-05-19T06:10:39.023Z,100.00
2023-05-19T06:13:05.595Z,100.00
2023-05-19T06:15:32.115Z,100.00
2023-05-19T06:17:59.253Z,100.00
2023-05-19T06:20:26.305Z,100.00
2023-05-19T06:22:52.837Z,100.00
2023-05-19T06:25:20.539Z,100.00
2023-05-19T06:27:47.143Z,100.00
2023-05-19T06:30:13.918Z,100.00
2023-05-19T06:32:40.615Z,100.00
2023-05-19T06:35:07.529Z,100.00
2023-05-19T06:37:34.006Z,100.00
2023-05-19T06:40:00.876Z,100.00
2023-05-19T06:42:27.334Z,100.00
2023-05-19T06:44:53.819Z,100.00
2023-05-19T06:47:20.273Z,100.00
2023-05-19T06:49:50.688Z,100.00
2023-05-19T06:52:17.421Z,100.00
2023-05-19T06:54:43.891Z,100.00
2023-05-19T06:57:10.500Z,100.00
2023-05-19T06:59:37.652Z,100.00
2023-05-19T07:02:04.795Z,100.00
2023-05-19T07:04:31.416Z,100.00
2023-05-19T07:06:57.876Z,100.00
2023-05-19T07:09:24.444Z,100.00
2023-05-19T07:11:51.189Z,100.00
2023-05-19T07:14:17.707Z,100.00
2023-05-19T07:16:44.611Z,100.00
2023-05-19T07:19:11.244Z,100.00
2023-05-19T07:21:37.882Z,100.00
2023-05-19T07:24:04.586Z,100.00
2023-05-19T07:26:31.921Z,100.00
2023-05-19T07:28:58.480Z,100.00
2023-05-19T07:31:25.038Z,100.00
2023-05-19T07:33:54.281Z,100.00
2023-05-19T07:36:21.452Z,100.00
2023-05-19T07:38:48.165Z,100.00
2023-05-19T07:41:15.089Z,100.00
2023-05-19T07:43:41.659Z,100.00
2023-05-19T07:46:08.486Z,100.00
2023-05-19T07:48:34.991Z,100.00
2023-05-19T07:51:02.277Z,100.00
2023-05-19T07:53:29.139Z,100.00
2023-05-19T07:55:58.373Z,100.00
2023-05-19T07:58:25.397Z,100.00
2023-05-19T08:00:53.331Z,100.00
2023-05-19T08:03:20.968Z,100.00
2023-05-19T08:05:47.923Z,100.00
2023-05-19T08:08:16.679Z,93.41
2023-05-19T08:10:43.560Z,97.76
2023-05-19T08:13:10.105Z,93.54
2023-05-19T08:15:36.928Z,86.86
2023-05-19T08:18:05.275Z,82.46
2023-05-19T08:20:32.879Z,87.73
2023-05-19T08:22:59.620Z,72.35
2023-05-19T08:25:26.140Z,67.79
2023-05-19T08:27:52.619Z,72.69
2023-05-19T08:30:19.121Z,68.01
2023-05-19T08:32:45.612Z,68.24
2023-05-19T08:35:12.206Z,64.52
2023-05-19T08:37:38.765Z,66.75
2023-05-19T08:40:06.338Z,71.02
2023-05-19T08:42:33.881Z,61.27
2023-05-19T08:45:01.742Z,57.24
2023-05-19T08:47:28.795Z,65.07
2023-05-19T08:50:04.925Z,65.90
2023-05-19T08:52:57.849Z,89.63
2023-05-19T08:55:33.875Z,71.39
2023-05-19T08:58:04.816Z,81.75
2023-05-19T09:00:32.668Z,67.48
2023-05-19T09:03:16.907Z,75.72
2023-05-19T09:05:46.539Z,76.90
2023-05-19T09:08:13.772Z,62.73
2023-05-19T09:10:40.336Z,69.80
2023-05-19T09:13:06.926Z,65.43
2023-05-19T09:15:36.814Z,69.74
2023-05-19T09:18:12.347Z,83.78
2023-05-19T09:20:46.334Z,69.96
2023-05-19T09:23:17.578Z,71.83
2023-05-19T09:25:49.203Z,65.47
2023-05-19T09:28:26.717Z,73.90
2023-05-19T09:31:11.508Z,69.46
2023-05-19T09:33:39.575Z,59.17
2023-05-19T09:36:08.388Z,58.33
2023-05-19T09:38:36.463Z,55.14
2023-05-19T09:41:03.956Z,62.96
2023-05-19T09:43:31.817Z,66.21
2023-05-19T09:46:06.686Z,48.74
2023-05-19T09:48:34.747Z,47.70
2023-05-19T09:51:02.431Z,52.96
2023-05-19T09:53:32.634Z,53.34
2023-05-19T09:56:01.625Z,49.27
2023-05-19T09:58:34.592Z,46.98
2023-05-19T10:01:01.661Z,46.18
2023-05-19T10:03:28.500Z,47.28
2023-05-19T10:05:56.285Z,48.05
2023-05-19T10:08:26.492Z,43.35
2023-05-19T10:10:53.097Z,46.06
2023-05-19T10:13:21.357Z,45.55
2023-05-19T10:18:21.092Z,45.98
2023-05-19T10:20:50.011Z,45.62
2023-05-19T10:23:16.723Z,48.96
2023-05-19T10:25:43.843Z,45.73
2023-05-19T10:28:16.768Z,45.63
2023-05-19T10:30:46.413Z,41.50
2023-05-19T10:33:16.715Z,43.22
2023-05-19T10:35:47.267Z,40.39
2023-05-19T10:38:22.761Z,39.34
2023-05-19T10:41:10.539Z,42.35
2023-05-19T10:43:56.020Z,39.90
2023-05-19T10:46:27.510Z,40.43
2023-05-19T10:48:54.579Z,39.25
2023-05-19T10:51:21.376Z,38.72
2023-05-19T10:53:50.005Z,42.61
2023-05-19T10:56:34.703Z,42.28
2023-05-19T10:59:02.286Z,42.66
2023-05-19T11:01:34.015Z,40.58
2023-05-19T11:04:12.547Z,38.76
2023-05-19T11:06:40.416Z,40.01
2023-05-19T11:09:12.485Z,39.13
2023-05-19T11:11:52.929Z,39.82
2023-05-19T11:14:22.973Z,40.01
2023-05-19T11:16:51.799Z,42.06
2023-05-19T11:19:37.022Z,41.22
2023-05-19T11:22:11.748Z,39.94
2023-05-19T11:24:45.871Z,38.80
2023-05-19T11:27:31.966Z,40.47
2023-05-19T11:30:01.898Z,46.65
2023-05-19T11:32:30.682Z,42.10
2023-05-19T11:34:58.187Z,40.24
2023-05-19T11:37:25.312Z,41.87
2023-05-19T11:39:53.335Z,44.07
2023-05-19T11:42:20.331Z,40.21
2023-05-19T11:44:47.104Z,41.91
2023-05-19T11:47:17.293Z,42.15
2023-05-19T11:49:54.945Z,41.50
2023-05-19T11:52:23.198Z,40.98
2023-05-19T11:54:50.018Z,38.34
2023-05-19T11:57:16.944Z,37.61
2023-05-19T11:59:48.290Z,37.37
2023-05-19T12:02:22.684Z,35.74
2023-05-19T12:04:49.631Z,36.15
2023-05-19T12:07:19.899Z,36.10
2023-05-19T12:09:47.252Z,35.45
2023-05-19T12:12:18.709Z,36.41
2023-05-19T12:14:51.016Z,36.23
2023-05-19T12:17:19.891Z,35.18
2023-05-19T12:19:48.084Z,38.19
2023-05-19T12:22:18.134Z,38.71
2023-05-19T12:24:45.461Z,37.30
2023-05-19T12:27:23.622Z,38.81
2023-05-19T12:29:54.223Z,38.38
2023-05-19T12:32:28.621Z,35.91
2023-05-19T12:34:58.819Z,37.27
2023-05-19T12:37:30.171Z,36.04
2023-05-19T12:39:57.470Z,35.15
2023-05-19T12:42:26.801Z,36.83
2023-05-19T12:44:54.682Z,39.84
2023-05-19T12:47:21.217Z,34.60
2023-05-19T12:50:00.349Z,36.04
2023-05-19T12:52:29.708Z,36.61
2023-05-19T12:55:07.663Z,33.91
2023-05-19T12:57:36.110Z,35.76
2023-05-19T13:00:07.179Z,35.90
2023-05-19T13:02:36.170Z,39.68
2023-05-19T13:05:04.685Z,33.87
2023-05-19T13:07:31.195Z,35.87
2023-05-19T13:09:57.770Z,35.40
2023-05-19T13:12:24.654Z,36.13
2023-05-19T13:14:52.889Z,35.58
2023-05-19T13:17:20.638Z,35.73
2023-05-19T13:19:47.186Z,37.08
2023-05-19T13:22:14.049Z,35.95
2023-05-19T13:24:41.054Z,35.57
2023-05-19T13:27:07.983Z,39.18
2023-05-19T13:29:34.510Z,35.94
2023-05-19T13:32:01.661Z,37.38
2023-05-19T13:34:28.234Z,37.73
2023-05-19T13:36:54.916Z,36.84
2023-05-19T13:39:21.451Z,37.17
2023-05-19T13:41:48.040Z,39.01
2023-05-19T13:44:14.591Z,37.12
2023-05-19T13:46:45.632Z,37.60
2023-05-19T13:49:13.381Z,38.62
2023-05-19T13:51:43.577Z,42.95
2023-05-19T13:54:10.429Z,38.98
2023-05-19T13:56:37.064Z,38.36
2023-05-19T13:59:04.119Z,43.18
2023-05-19T14:01:30.848Z,40.50
2023-05-19T14:03:57.721Z,39.41
2023-05-19T14:06:24.479Z,41.89
2023-05-19T14:08:50.935Z,41.78
2023-05-19T14:11:19.636Z,40.74
2023-05-19T14:13:46.853Z,41.14
2023-05-19T14:16:13.384Z,40.50
2023-05-19T14:18:39.927Z,43.80
2023-05-19T14:21:06.414Z,45.17
2023-05-19T14:23:33.018Z,46.43
2023-05-19T14:25:59.694Z,41.50
2023-05-19T14:28:26.524Z,42.92
2023-05-19T14:30:53.112Z,42.56
2023-05-19T14:33:21.131Z,43.07
2023-05-19T14:35:47.928Z,47.20
2023-05-19T14:38:14.488Z,44.62
2023-05-19T14:40:41.666Z,50.43
2023-05-19T14:43:08.302Z,47.53
2023-05-19T14:45:35.349Z,45.16
2023-05-19T14:48:02.113Z,50.09
2023-05-19T14:50:29.420Z,43.90
2023-05-19T14:52:56.787Z,47.85
2023-05-19T14:55:23.322Z,45.78
2023-05-19T14:57:50.236Z,46.38
2023-05-19T15:00:17.776Z,46.68
2023-05-19T15:02:44.565Z,47.96
2023-05-19T15:05:11.808Z,47.46
2023-05-19T15:07:38.323Z,50.37
2023-05-19T15:10:06.873Z,47.29
2023-05-19T15:12:33.406Z,48.19
2023-05-19T15:14:59.959Z,47.23
2023-05-19T15:17:26.586Z,46.84
2023-05-19T15:19:53.385Z,48.38
2023-05-19T15:22:19.886Z,49.51
2023-05-19T15:24:46.400Z,52.93
2023-05-19T15:27:12.911Z,53.74
2023-05-19T15:29:39.448Z,51.97
2023-05-19T15:32:06.649Z,49.61
2023-05-19T15:34:33.169Z,48.75
2023-05-19T15:36:59.747Z,51.20
2023-05-19T15:39:26.341Z,50.59
2023-05-19T15:41:52.900Z,55.59
2023-05-19T15:44:19.374Z,50.67
2023-05-19T15:46:46.020Z,48.79
2023-05-19T15:49:12.973Z,47.29
2023-05-19T15:51:39.885Z,49.34
2023-05-19T15:54:06.462Z,46.24
2023-05-19T15:56:33.059Z,49.02
2023-05-19T15:58:59.652Z,47.54
2023-05-19T16:01:26.418Z,47.95
2023-05-19T16:03:53.461Z,51.47
2023-05-19T16:06:20.183Z,49.66
2023-05-19T16:08:46.660Z,51.61
2023-05-19T16:11:13.287Z,56.06
2023-05-19T16:13:39.805Z,55.04
2023-05-19T16:16:06.727Z,47.59
2023-05-19T16:18:33.284Z,47.43
2023-05-19T16:20:59.934Z,48.78
2023-05-19T16:23:27.410Z,48.33
2023-05-19T16:25:54.843Z,49.16
2023-05-19T16:28:23.247Z,55.10
2023-05-19T16:30:51.311Z,58.58
2023-05-19T16:33:17.820Z,59.74
2023-05-19T16:35:44.349Z,62.24
2023-05-19T16:38:10.838Z,67.18
2023-05-19T16:40:38.122Z,60.63
2023-05-19T16:43:04.641Z,65.14
2023-05-19T16:45:31.123Z,55.01
2023-05-19T16:47:57.759Z,58.18
2023-05-19T16:50:24.354Z,57.21
2023-05-19T16:52:50.871Z,52.23
2023-05-19T16:55:20.133Z,52.43
2023-05-19T16:57:47.161Z,56.02
2023-05-19T17:00:14.531Z,51.42
2023-05-19T17:02:41.325Z,55.24
2023-05-19T17:05:08.377Z,49.86
2023-05-19T17:07:34.916Z,54.72
2023-05-19T17:10:01.375Z,55.69
2023-05-19T17:12:27.882Z,59.48
2023-05-19T17:14:54.506Z,61.04
2023-05-19T17:17:21.252Z,58.57
2023-05-19T17:19:47.694Z,58.41
2023-05-19T17:22:14.159Z,59.02
2023-05-19T17:24:41.231Z,61.22
2023-05-19T17:27:07.944Z,57.32
2023-05-19T17:29:34.880Z,59.28
2023-05-19T17:32:03.714Z,57.06
2023-05-19T17:34:30.730Z,53.70
2023-05-19T17:36:57.299Z,54.87
2023-05-19T17:39:24.754Z,57.59
2023-05-19T17:41:51.245Z,61.38
2023-05-19T17:44:17.754Z,64.17
2023-05-19T17:46:44.397Z,61.81
2023-05-19T17:49:12.975Z,72.60
2023-05-19T17:51:39.728Z,64.24
2023-05-19T17:54:06.694Z,66.17
2023-05-19T17:56:34.385Z,73.15
2023-05-19T17:59:01.354Z,65.90
2023-05-19T18:01:28.155Z,65.94
2023-05-19T18:03:55.006Z,72.99
2023-05-19T18:06:24.119Z,67.77
2023-05-19T18:08:51.818Z,72.62
2023-05-19T18:11:18.635Z,74.33
2023-05-19T18:13:45.172Z,79.55
2023-05-19T18:16:12.402Z,80.62
2023-05-19T18:18:41.162Z,80.41
2023-05-19T18:21:07.701Z,82.95
2023-05-19T18:23:34.189Z,79.68
2023-05-19T18:26:00.743Z,84.90
2023-05-19T18:28:27.329Z,77.29
2023-05-19T18:31:01.235Z,81.10
2023-05-19T18:33:30.115Z,82.36
2023-05-19T18:35:58.385Z,85.58
2023-05-19T18:38:24.936Z,82.95
2023-05-19T18:40:52.028Z,86.95
2023-05-19T18:43:19.239Z,87.81
2023-05-19T18:45:48.621Z,89.47
2023-05-19T18:48:15.658Z,91.91
2023-05-19T18:50:44.052Z,91.81
2023-05-19T18:53:11.712Z,94.69
2023-05-19T18:55:38.609Z,90.67
2023-05-19T18:58:06.209Z,95.41
2023-05-19T19:00:33.129Z,99.83
2023-05-19T19:02:59.896Z,96.45
2023-05-19T19:05:26.426Z,92.20
2023-05-19T19:07:53.452Z,99.69
2023-05-19T19:10:20.219Z,100.00
2023-05-19T19:12:47.044Z,100.00
2023-05-19T19:15:13.634Z,100.00
2023-05-19T19:17:40.231Z,100.00
2023-05-19T19:20:08.647Z,100.00
2023-05-19T19:22:35.483Z,100.00
2023-05-19T19:25:01.962Z,100.00
2023-05-19T19:27:31.085Z,100.00
2023-05-19T19:29:58.664Z,100.00
2023-05-19T19:32:25.644Z,100.00
2023-05-19T19:34:55.306Z,100.00
2023-05-19T19:37:21.798Z,100.00
2023-05-19T19:39:48.326Z,100.00
2023-05-19T19:42:14.837Z,100.00
2023-05-19T19:44:41.321Z,100.00
2023-05-19T19:47:07.949Z,100.00
2023-05-19T19:49:34.532Z,100.00
2023-05-19T19:52:01.189Z,100.00
2023-05-19T19:54:27.698Z,100.00
2023-05-19T19:56:54.454Z,100.00
2023-05-19T19:59:21.003Z,100.00
2023-05-19T20:01:47.485Z,100.00
2023-05-19T20:04:14.051Z,100.00
2023-05-19T20:06:40.866Z,100.00
2023-05-19T20:09:07.676Z,100.00
2023-05-19T20:11:34.382Z,100.00
2023-05-19T20:14:00.914Z,100.00
2023-05-19T20:16:27.564Z,100.00
2023-05-19T20:18:54.534Z,100.00
2023-05-19T20:21:21.047Z,100.00
2023-05-19T20:23:48.269Z,100.00
2023-05-19T20:26:14.900Z,100.00
2023-05-19T20:28:41.630Z,100.00
2023-05-19T20:31:08.677Z,100.00
2023-05-19T20:33:35.325Z,100.00
2023-05-19T20:36:01.906Z,100.00
2023-05-19T20:38:28.348Z,100.00
2023-05-19T20:40:54.886Z,100.00
2023-05-19T20:43:21.640Z,100.00
2023-05-19T20:45:48.311Z,100.00
2023-05-19T20:48:15.878Z,100.00
2023-05-19T20:50:42.586Z,100.00
2023-05-19T20:53:09.103Z,100.00
2023-05-19T20:55:38.558Z,100.00
2023-05-19T20:58:05.457Z,100.00
2023-05-19T21:00:32.514Z,100.00
2023-05-19T21:02:59.424Z,100.00
2023-05-19T21:05:26.185Z,100.00
2023-05-19T21:07:52.677Z,100.00
2023-05-19T21:10:19.199Z,100.00
2023-05-19T21:12:46.347Z,100.00
2023-05-19T21:15:13.548Z,100.00
2023-05-19T21:17:40.392Z,100.00
2023-05-19T21:20:07.668Z,100.00
2023-05-19T21:22:35.679Z,100.00
2023-05-19T21:25:02.203Z,100.00
2023-05-19T21:27:28.700Z,100.00
2023-05-19T21:29:55.507Z,100.00
2023-05-19T21:32:22.108Z,100.00
2023-05-19T21:34:48.842Z,100.00
2023-05-19T21:37:17.292Z,100.00
2023-05-19T21:39:44.426Z,100.00
2023-05-19T21:42:10.937Z,100.00
2023-05-19T21:44:37.505Z,100.00
2023-05-19T21:47:04.050Z,100.00
2023-05-19T21:49:31.225Z,100.00
2023-05-19T21:51:57.915Z,100.00
2023-05-19T21:54:24.489Z,100.00
2023-05-19T21:56:51.018Z,100.00
2023-05-19T21:59:17.551Z,100.00
2023-05-19T22:01:44.202Z,100.00
2023-05-19T22:04:11.371Z,100.00
2023-05-19T22:06:37.960Z,100.00
2023-05-19T22:09:04.543Z,100.00
2023-05-19T22:11:31.091Z,100.00
2023-05-19T22:13:57.593Z,100.00
2023-05-19T22:16:24.149Z,100.00
2023-05-19T22:18:50.736Z,100.00
2023-05-19T22:21:17.332Z,100.00
2023-05-19T22:23:44.027Z,100.00
2023-05-19T22:26:10.624Z,100.00
2023-05-19T22:28:37.203Z,100.00
2023-05-19T22:31:03.921Z,100.00
2023-05-19T22:33:30.520Z,100.00
2023-05-19T22:35:57.048Z,100.00
2023-05-19T22:38:23.522Z,100.00
2023-05-19T22:40:50.016Z,100.00
2023-05-19T22:43:16.504Z,100.00
2023-05-19T22:45:43.078Z,100.00
2023-05-19T22:48:09.591Z,100.00
2023-05-19T22:50:36.360Z,100.00
2023-05-19T22:53:02.954Z,100.00
2023-05-19T22:55:29.412Z,100.00
2023-05-19T22:57:56.004Z,100.00
2023-05-19T23:00:22.682Z,100.00
2023-05-19T23:02:49.495Z,100.00
2023-05-19T23:05:16.315Z,100.00
2023-05-19T23:07:42.843Z,100.00
2023-05-19T23:10:09.719Z,100.00
2023-05-19T23:12:36.299Z,100.00
2023-05-19T23:15:03.607Z,100.00
2023-05-19T23:17:30.234Z,100.00
2023-05-19T23:19:56.889Z,100.00
2023-05-19T23:22:23.383Z,100.00
2023-05-19T23:24:49.862Z,100.00
2023-05-19T23:27:16.367Z,100.00
2023-05-19T23:29:47.133Z,100.00
2023-05-19T23:32:13.655Z,100.00
2023-05-19T23:34:40.398Z,100.00
2023-05-19T23:37:07.080Z,100.00
2023-05-19T23:39:33.630Z,100.00
2023-05-19T23:42:00.206Z,100.00
2023-05-19T23:44:27.328Z,100.00
2023-05-19T23:46:54.162Z,100.00
2023-05-19T23:49:20.888Z,100.00
2023-05-19T23:51:47.420Z,100.00
2023-05-19T23:54:13.900Z,100.00
2023-05-19T23:56:40.755Z,100.00
2023-05-19T23:59:07.277Z,100.00
